Time;durP1;ratioP1;P1;durP2;ratioP2;P2;SDS_P1;SDS_P2;PMS_P1;PMS_P2;Temp;Humidity;BMP_temperature;BMP_pressure;BME280_temperature;BME280_humidity;BME280_pressure;Samples;Min_cycle;Max_cycle;Signal;HPM_P1;HPM_P2
2020/12/08 00:01:19;;;;;;;18.47;9.73;;;;;;;-7.21;70.07;101278.66;1668774;85;21205;-79
2020/12/08 00:03:47;;;;;;;20.23;9.73;;;;;;;-7.26;70.27;101263.59;1656759;85;21039;-79
2020/12/08 00:06:14;;;;;;;18.83;9.67;;;;;;;-7.28;70.24;101255.95;1678747;83;21161;-79
2020/12/08 00:08:42;;;;;;;24.07;9.30;;;;;;;-7.25;70.37;101259.95;1681594;83;21232;-79
2020/12/08 00:11:17;;;;;;;18.80;10.07;;;;;;;-7.21;70.25;101262.32;1685461;85;21699;-78
2020/12/08 00:13:45;;;;;;;21.57;10.17;;;;;;;-7.20;70.24;101268.70;1669202;84;21140;-79
2020/12/08 00:16:14;;;;;;;18.93;10.60;;;;;;;-7.20;70.05;101256.14;1667128;83;21468;-80
2020/12/08 00:18:42;;;;;;;19.57;10.30;;;;;;;-7.23;69.90;101243.33;1685443;83;21109;-79
2020/12/08 00:21:09;;;;;;;16.70;9.83;;;;;;;-7.28;69.88;101247.54;1693715;83;21386;-78
2020/12/08 00:23:37;;;;;;;19.33;10.53;;;;;;;-7.33;70.21;101246.78;1743608;81;21541;-78
2020/12/08 00:26:05;;;;;;;17.93;9.00;;;;;;;-7.32;70.24;101246.05;1701282;81;21123;-79
2020/12/08 00:28:34;;;;;;;19.47;8.17;;;;;;;-7.35;70.21;101248.33;1690708;83;21164;-78
2020/12/08 00:31:02;;;;;;;21.47;9.70;;;;;;;-7.43;70.42;101255.65;1673701;85;21153;-78
2020/12/08 00:33:29;;;;;;;16.97;8.40;;;;;;;-7.50;70.42;101238.73;1680328;84;21453;-79
2020/12/08 00:35:58;;;;;;;17.13;7.90;;;;;;;-7.56;70.80;101244.16;1652843;85;21092;-79
2020/12/08 00:38:27;;;;;;;18.07;9.05;;;;;;;-7.55;70.81;101243.05;1703875;83;21085;-79
2020/12/08 00:40:54;;;;;;;17.10;9.87;;;;;;;-7.54;70.89;101229.71;1666157;85;21065;-78
2020/12/08 00:43:22;;;;;;;16.50;7.10;;;;;;;-7.53;70.91;101236.86;1714645;81;21117;-78
2020/12/08 00:45:51;;;;;;;20.33;9.20;;;;;;;-7.56;70.86;101222.42;1717715;81;22065;-80
2020/12/08 00:48:19;;;;;;;16.70;8.57;;;;;;;-7.60;70.94;101239.29;1744528;81;21738;-78
2020/12/08 00:50:47;;;;;;;17.47;8.37;;;;;;;-7.64;71.16;101231.41;1713571;81;21059;-81
2020/12/08 00:53:15;;;;;;;13.97;7.13;;;;;;;-7.64;71.25;101234.80;1650379;85;21216;-77
2020/12/08 00:55:44;;;;;;;14.20;7.37;;;;;;;-7.62;71.31;101233.64;1698711;84;21603;-79
2020/12/08 00:58:12;;;;;;;16.80;8.73;;;;;;;-7.69;71.48;101224.75;1663995;85;21484;-80
2020/12/08 01:00:41;;;;;;;15.60;7.53;;;;;;;-7.71;71.57;101235.09;1691783;83;21644;-80
2020/12/08 01:03:08;;;;;;;14.97;8.20;;;;;;;-7.76;71.91;101228.82;1660725;83;21239;-77
2020/12/08 01:05:37;;;;;;;16.27;8.70;;;;;;;-7.80;72.08;101223.06;1691790;83;21183;-79
2020/12/08 01:08:05;;;;;;;17.37;9.13;;;;;;;-7.79;72.18;101221.91;1714248;83;21176;-79
2020/12/08 01:10:34;;;;;;;14.93;6.13;;;;;;;-7.77;72.28;101218.28;1694499;83;21189;-80
2020/12/08 01:13:02;;;;;;;15.27;7.70;;;;;;;-7.77;72.12;101215.39;1686072;82;21139;-79
2020/12/08 01:15:30;;;;;;;15.67;7.70;;;;;;;-7.72;72.13;101209.83;1664259;83;21161;-80
2020/12/08 01:17:59;;;;;;;13.33;6.80;;;;;;;-7.69;72.10;101218.47;1669529;84;21200;-78
2020/12/08 01:20:29;;;;;;;13.78;4.83;;;;;;;-7.68;72.02;101219.38;1667323;84;21195;-79
2020/12/08 01:22:57;;;;;;;16.17;7.20;;;;;;;-7.76;72.18;101213.75;1686484;84;21166;-80
2020/12/08 01:25:26;;;;;;;11.83;6.70;;;;;;;-7.95;72.80;101217.72;1693310;83;21057;-79
2020/12/08 01:27:54;;;;;;;10.33;5.97;;;;;;;-8.06;73.42;101224.42;1693871;84;21175;-78
2020/12/08 01:30:22;;;;;;;12.53;6.93;;;;;;;-8.16;74.14;101231.13;1690529;83;21140;-80
2020/12/08 01:32:50;;;;;;;17.17;8.10;;;;;;;-8.21;74.48;101224.47;1695574;83;21877;-80
2020/12/08 01:35:20;;;;;;;15.63;8.27;;;;;;;-8.25;74.72;101234.64;1697448;83;21849;-80
2020/12/08 01:37:50;;;;;;;22.98;7.58;;;;;;;-8.27;75.26;101234.05;1669088;84;21174;-79
2020/12/08 01:40:17;;;;;;;14.37;6.83;;;;;;;-8.28;75.57;101230.64;1717014;83;21087;-78
2020/12/08 01:42:46;;;;;;;11.03;6.87;;;;;;;-8.31;75.83;101221.61;1679603;83;21097;-80
2020/12/08 01:45:15;;;;;;;14.10;7.53;;;;;;;-8.29;76.07;101225.12;1722721;83;21076;-80
2020/12/08 01:47:43;;;;;;;15.77;7.17;;;;;;;-8.25;75.96;101225.86;1677215;84;21918;-81
2020/12/08 01:50:12;;;;;;;15.27;6.30;;;;;;;-8.22;76.34;101216.83;1669504;84;21156;-80
2020/12/08 01:52:40;;;;;;;13.47;7.50;;;;;;;-8.17;76.12;101228.12;1680074;84;21191;-80
2020/12/08 01:55:08;;;;;;;15.53;7.13;;;;;;;-8.20;76.53;101221.22;1653853;85;21163;-80
2020/12/08 01:57:39;;;;;;;15.10;7.45;;;;;;;-8.20;76.53;101221.22;1658531;84;21067;-80
2020/12/08 02:00:09;;;;;;;17.70;7.25;;;;;;;-8.18;76.48;101215.92;1679557;84;21827;-80
2020/12/08 02:02:43;;;;;;;7.07;4.43;;;;;;;-8.14;76.36;101212.02;1678957;84;21207;-80
2020/12/08 02:05:19;;;;;;;18.60;7.47;;;;;;;-8.27;76.69;101223.63;1665151;84;22237;-80
2020/12/08 02:07:47;;;;;;;12.60;7.63;;;;;;;-8.27;76.58;101226.14;1696139;84;21858;-80
2020/12/08 02:10:15;;;;;;;15.40;7.40;;;;;;;-8.26;76.90;101224.50;1681627;84;21750;-81
2020/12/08 02:12:45;;;;;;;17.03;6.77;;;;;;;-8.23;76.88;101225.12;1677994;84;22113;-79
2020/12/08 02:15:13;;;;;;;;;;;;;;;-8.25;76.61;101214.56;1684815;84;22180;-79
2020/12/08 02:17:43;;;;;;;13.47;6.93;;;;;;;-8.25;76.80;101232.14;1689679;84;20496;-79
2020/12/08 02:20:12;;;;;;;10.53;5.50;;;;;;;-8.33;77.22;101233.17;1653014;85;21923;-79
2020/12/08 02:22:42;;;;;;;13.23;7.43;;;;;;;-8.43;78.26;101228.22;1652984;85;21928;-79
2020/12/08 02:25:10;;;;;;;15.08;8.10;;;;;;;-8.43;78.21;101223.20;1690393;83;21863;-79
2020/12/08 02:27:38;;;;;;;16.37;7.83;;;;;;;-8.42;78.38;101226.20;1719294;81;21473;-80
2020/12/08 02:30:07;;;;;;;11.23;6.30;;;;;;;-8.43;78.67;101212.30;1720589;81;21854;-80
2020/12/08 02:32:36;;;;;;;13.23;7.73;;;;;;;-8.45;78.75;101213.79;1729872;81;21743;-79
2020/12/08 02:35:04;;;;;;;17.17;7.50;;;;;;;-8.48;78.85;101218.18;1726340;81;21799;-80
2020/12/08 02:37:35;;;;;;;13.70;7.97;;;;;;;-8.42;79.25;101224.08;1707892;81;22279;-79
2020/12/08 02:40:05;;;;;;;16.40;7.27;;;;;;;-8.36;78.99;101222.02;1661791;84;21881;-80
2020/12/08 02:42:34;;;;;;;15.33;7.73;;;;;;;-8.30;79.03;101224.64;1694362;83;22005;-79
2020/12/08 02:45:02;;;;;;;17.70;6.77;;;;;;;-8.32;78.86;101213.59;1695395;84;21858;-80
2020/12/08 02:47:30;;;;;;;11.37;6.07;;;;;;;-8.30;79.03;101224.64;1656306;85;21937;-79
2020/12/08 02:49:59;;;;;;;8.27;4.43;;;;;;;-8.26;78.51;101219.48;1732505;81;21866;-80
2020/12/08 02:52:27;;;;;;;14.30;6.83;;;;;;;-8.31;78.43;101229.52;1714078;81;21789;-81
2020/12/08 02:54:56;;;;;;;14.27;7.03;;;;;;;-8.41;78.94;101229.20;1723569;81;22291;-80
2020/12/08 02:57:24;;;;;;;17.63;6.77;;;;;;;-8.39;78.92;101220.55;1687374;81;21861;-79
2020/12/08 02:59:52;;;;;;;16.63;6.60;;;;;;;-8.33;78.91;101218.50;1741152;81;21800;-80
2020/12/08 03:02:21;;;;;;;17.33;7.90;;;;;;;-8.31;78.93;101204.42;1729407;81;21893;-81
2020/12/08 03:04:50;;;;;;;15.40;7.67;;;;;;;-8.31;78.75;101205.67;1729026;81;21882;-79
2020/12/08 03:07:18;;;;;;;17.03;8.23;;;;;;;-8.31;78.80;101210.70;1736573;81;21855;-79
2020/12/08 03:09:46;;;;;;;13.30;6.73;;;;;;;-8.30;78.86;101210.84;1720494;81;21740;-79
2020/12/08 03:12:14;;;;;;;14.70;7.33;;;;;;;-8.27;78.92;101203.94;1669722;81;21771;-80
2020/12/08 03:14:44;;;;;;;13.07;7.80;;;;;;;-8.20;78.84;101201.52;1721184;83;21901;-80
2020/12/08 03:17:13;;;;;;;16.20;7.90;;;;;;;-8.15;78.70;101205.25;1678361;83;21893;-80
2020/12/08 03:19:44;;;;;;;15.60;6.85;;;;;;;-8.07;78.65;101211.77;1712255;81;21867;-80
2020/12/08 03:22:11;;;;;;;11.07;5.13;;;;;;;-7.94;78.65;101215.73;1704996;83;21134;-78
2020/12/08 03:24:48;;;;;;;14.80;5.93;;;;;;;-7.89;78.13;101198.11;1694006;81;21765;-79
2020/12/08 03:27:17;;;;;;;14.58;5.62;;;;;;;-7.91;78.17;101197.13;1685333;83;22254;-79
2020/12/08 03:29:46;;;;;;;19.03;7.47;;;;;;;-7.98;78.68;101206.17;1723972;81;21126;-78
2020/12/08 03:32:15;;;;;;;13.47;8.37;;;;;;;-8.06;78.67;101189.27;1724842;81;21753;-79
2020/12/08 03:34:43;;;;;;;15.33;7.67;;;;;;;-8.06;78.63;101200.58;1741854;81;21751;-80
2020/12/08 03:37:11;;;;;;;16.37;8.03;;;;;;;-8.03;78.62;101202.07;1692270;83;21112;-80
2020/12/08 03:39:38;;;;;;;13.03;6.80;;;;;;;-7.97;78.67;101201.67;1743273;81;22176;-80
2020/12/08 03:42:06;;;;;;;12.77;6.47;;;;;;;-7.92;78.62;101191.97;1723060;81;21089;-80
2020/12/08 03:44:38;;;;;;;15.23;8.23;;;;;;;-7.90;78.37;101192.98;1719465;81;21758;-79
2020/12/08 03:47:07;;;;;;;15.10;7.60;;;;;;;-7.90;78.60;101198.00;1694049;81;21163;-79
2020/12/08 03:49:36;;;;;;;15.43;7.33;;;;;;;-7.80;78.63;101196.69;1738548;81;21732;-79
2020/12/08 03:52:04;;;;;;;17.90;7.07;;;;;;;-7.69;78.68;101189.58;1747015;81;22354;-79
2020/12/08 03:54:32;;;;;;;13.93;7.73;;;;;;;-7.59;77.72;101185.75;1712501;81;21815;-80
2020/12/08 03:57:01;;;;;;;15.50;8.13;;;;;;;-7.52;77.55;101188.38;1694894;82;21834;-79
2020/12/08 03:59:30;;;;;;;15.23;8.27;;;;;;;-7.52;77.55;101188.38;1721427;82;21146;-79
2020/12/08 04:02:01;;;;;;;14.85;7.65;;;;;;;-7.50;77.06;101195.63;1741747;81;21159;-79
2020/12/08 04:04:28;;;;;;;16.17;8.10;;;;;;;-7.50;77.08;101193.13;1719378;81;21218;-80
2020/12/08 04:06:57;;;;;;;11.53;6.13;;;;;;;-7.55;76.82;101189.02;1694853;83;21945;-81
2020/12/08 04:09:24;;;;;;;14.03;7.77;;;;;;;-7.63;77.18;101182.52;1693572;83;21104;-79
2020/12/08 04:11:53;;;;;;;17.77;8.60;;;;;;;-7.64;77.28;101171.11;1730851;81;21615;-80
2020/12/08 04:14:21;;;;;;;21.20;8.33;;;;;;;-7.53;77.40;101187.86;1721879;81;21136;-80
2020/12/08 04:16:49;;;;;;;15.73;7.73;;;;;;;-7.49;77.18;101179.78;1694636;83;21881;-80
2020/12/08 04:19:18;;;;;;;17.20;8.13;;;;;;;-7.47;77.23;101181.17;1727866;81;21802;-81
2020/12/08 04:21:47;;;;;;;17.60;8.83;;;;;;;-7.40;77.26;101193.05;1719418;81;21779;-79
2020/12/08 04:24:16;;;;;;;14.87;8.00;;;;;;;-7.38;77.24;101188.16;1724126;81;21830;-80
2020/12/08 04:26:49;;;;;;;15.10;8.47;;;;;;;-7.32;77.23;101182.33;1729392;81;21029;-79
2020/12/08 04:29:16;;;;;;;14.97;8.93;;;;;;;-7.26;76.99;101180.25;1728729;81;21288;-78
2020/12/08 04:31:46;;;;;;;15.97;9.10;;;;;;;-7.28;76.79;101175.50;1725592;81;22210;-78
2020/12/08 04:34:13;;;;;;;20.33;9.27;;;;;;;-7.28;76.97;101174.64;1677151;83;21179;-80
2020/12/08 04:36:41;;;;;;;14.50;7.27;;;;;;;-7.25;77.04;101173.22;1685435;83;21119;-79
2020/12/08 04:39:09;;;;;;;14.23;8.30;;;;;;;-7.24;76.98;101174.96;1713339;81;21059;-79
2020/12/08 04:41:37;;;;;;;16.27;8.90;;;;;;;-7.24;76.98;101174.96;1718309;81;22023;-80
2020/12/08 04:44:05;;;;;;;13.20;7.00;;;;;;;-7.28;77.23;101172.13;1724120;81;21080;-79
2020/12/08 04:46:34;;;;;;;12.17;7.20;;;;;;;-7.54;78.88;101181.09;1742053;81;21135;-79
2020/12/08 04:49:02;;;;;;;12.60;7.37;;;;;;;-7.75;79.77;101174.04;1724810;81;21561;-80
2020/12/08 04:51:30;;;;;;;16.50;9.20;;;;;;;-7.89;80.34;101169.23;1729292;81;21160;-81
2020/12/08 04:53:58;;;;;;;18.70;8.17;;;;;;;-7.90;80.70;101180.42;1722602;81;21827;-79
2020/12/08 04:56:26;;;;;;;17.87;9.43;;;;;;;-7.88;80.93;101167.58;1708920;81;21061;-79
2020/12/08 04:58:54;;;;;;;16.33;7.97;;;;;;;-7.88;80.93;101167.58;1686277;83;21111;-79
2020/12/08 05:01:29;;;;;;;15.63;8.67;;;;;;;-7.79;80.87;101177.95;1690618;83;21886;-78
2020/12/08 05:04:00;;;;;;;15.77;8.53;;;;;;;-7.73;80.15;101178.81;1693973;83;21802;-79
2020/12/08 05:06:29;;;;;;;13.15;6.47;;;;;;;-7.73;80.15;101178.81;1681883;85;21347;-79
2020/12/08 05:09:07;;;;;;;14.60;8.77;;;;;;;-7.72;80.27;101181.81;1706098;84;21076;-80
2020/12/08 05:11:35;;;;;;;16.67;8.73;;;;;;;-7.81;80.39;101183.65;1705958;84;21131;-80
2020/12/08 05:14:05;;;;;;;14.63;7.00;;;;;;;-7.89;80.66;101177.14;1682583;84;21154;-79
2020/12/08 05:16:33;;;;;;;14.23;7.00;;;;;;;-7.93;81.13;101182.70;1699548;84;21145;-80
2020/12/08 05:19:09;;;;;;;18.37;8.20;;;;;;;-8.04;81.96;101185.64;1651213;86;21394;-80
2020/12/08 05:21:51;;;;;;;17.57;8.80;;;;;;;-8.09;81.82;101186.52;1700431;84;21127;-80
2020/12/08 05:24:30;;;;;;;21.13;8.57;;;;;;;-8.02;81.86;101184.98;1705228;84;21044;-78
2020/12/08 05:27:00;;;;;;;14.07;7.43;;;;;;;-7.89;81.68;101185.55;1669086;85;21791;-76
2020/12/08 05:29:32;;;;;;;17.80;9.10;;;;;;;-7.75;80.72;101170.66;1680593;84;21789;-79
2020/12/08 05:35:23;;;;;;;18.43;7.90;;;;;;;-7.75;80.07;101167.76;1850233;77;22358;-80
2020/12/08 05:37:53;;;;;;;14.85;8.40;;;;;;;-7.82;80.11;101168.05;1818044;77;21500;-79
2020/12/08 05:40:24;;;;;;;15.23;8.05;;;;;;;-7.89;79.91;101178.41;1794150;77;21410;-80
2020/12/08 05:42:54;;;;;;;12.57;6.03;;;;;;;-8.21;81.23;101182.18;1826685;78;20961;-79
2020/12/08 05:45:23;;;;;;;16.40;6.90;;;;;;;-8.21;81.23;101182.18;1805346;78;20885;-80
2020/12/08 05:47:57;;;;;;;16.77;8.40;;;;;;;-8.25;81.01;101185.70;1774567;79;21059;-80
2020/12/08 05:50:26;;;;;;;15.00;6.63;;;;;;;-8.20;81.26;101176.04;1794216;78;21735;-79
2020/12/08 05:52:58;;;;;;;23.30;8.47;;;;;;;-8.12;81.40;101192.56;1825422;78;21728;-81
2020/12/08 05:55:32;;;;;;;15.00;7.80;;;;;;;-8.07;81.15;101174.11;1806812;78;21794;-81
2020/12/08 05:58:09;;;;;;;12.37;7.30;;;;;;;-8.04;81.16;101189.03;1802101;78;21972;-80
2020/12/08 06:00:38;;;;;;;15.53;6.90;;;;;;;-7.99;81.01;101185.60;1782445;78;21113;-80
2020/12/08 06:03:14;;;;;;;18.23;8.13;;;;;;;-8.01;80.92;101187.14;1811017;77;21866;-80
2020/12/08 06:05:46;;;;;;;12.23;6.60;;;;;;;-8.10;81.33;101189.80;1816822;78;21333;-79
2020/12/08 06:08:16;;;;;;;18.17;8.53;;;;;;;-8.16;81.99;101186.81;1765482;80;21749;-81
2020/12/08 06:10:54;;;;;;;14.60;8.17;;;;;;;-8.16;81.80;101189.70;1794015;77;22267;-80
2020/12/08 06:13:29;;;;;;;19.87;8.50;;;;;;;-8.11;82.07;101192.17;1794155;78;22139;-80
2020/12/08 06:16:00;;;;;;;16.23;8.93;;;;;;;-8.04;82.22;101193.17;1826542;78;21869;-78
2020/12/08 06:18:34;;;;;;;13.62;7.37;;;;;;;-7.89;82.26;101179.27;1794099;77;22254;-80
2020/12/08 06:21:04;;;;;;;19.93;8.30;;;;;;;-7.83;81.64;101199.84;1815559;77;21074;-79
2020/12/08 06:23:32;;;;;;;19.87;9.25;;;;;;;-7.89;81.72;101190.95;1814245;78;21052;-80
2020/12/08 06:26:00;;;;;;;16.50;8.83;;;;;;;-7.88;81.99;101181.05;1795670;78;21605;-81
2020/12/08 06:28:29;;;;;;;18.00;8.67;;;;;;;-7.84;81.86;101180.52;1815334;77;21144;-79
2020/12/08 06:31:07;;;;;;;24.97;10.07;;;;;;;-7.78;81.88;101162.53;1793971;78;21425;-80
2020/12/08 06:33:52;;;;;;;19.17;9.83;;;;;;;-7.71;81.75;101173.92;1823499;77;21067;-80
2020/12/08 06:36:24;;;;;;;33.53;10.10;;;;;;;-7.68;81.21;101168.75;1798838;78;21151;-80
2020/12/08 06:39:02;;;;;;;14.27;7.13;;;;;;;-7.81;81.28;101171.09;1802707;78;21702;-80
2020/12/08 06:41:35;;;;;;;16.47;8.80;;;;;;;-7.90;81.70;101171.25;1813282;78;21811;-79
2020/12/08 06:44:14;;;;;;;18.83;9.37;;;;;;;-7.91;81.74;101167.00;1823379;77;21799;-80
2020/12/08 06:46:59;;;;;;;15.20;7.70;;;;;;;-7.90;81.86;101185.45;1800484;78;21031;-79
2020/12/08 06:49:39;;;;;;;17.17;8.53;;;;;;;-7.90;81.86;101185.45;1795047;78;21144;-80
2020/12/08 06:52:10;;;;;;;19.57;9.73;;;;;;;-8.07;82.36;101190.05;1801187;77;21158;-80
2020/12/08 06:54:38;;;;;;;16.13;8.27;;;;;;;-8.19;82.62;101182.80;1816721;78;21800;-80
2020/12/08 06:57:06;;;;;;;18.83;9.63;;;;;;;-8.18;82.98;101180.78;1816997;77;21157;-80
2020/12/08 06:59:34;;;;;;;19.70;9.07;;;;;;;-8.13;82.94;101193.70;1813291;77;21066;-80
2020/12/08 07:02:02;;;;;;;19.17;9.50;;;;;;;-8.03;82.55;101193.66;1814076;78;21767;-79
2020/12/08 07:04:30;;;;;;;16.53;8.63;;;;;;;-7.96;82.41;101189.99;1805096;77;21794;-80
2020/12/08 07:07:00;;;;;;;19.03;9.17;;;;;;;-7.80;82.09;101183.75;1811717;77;21793;-81
2020/12/08 07:09:33;;;;;;;16.60;8.47;;;;;;;-7.80;82.09;101183.75;1824345;77;21196;-79
2020/12/08 07:12:28;;;;;;;21.57;9.27;;;;;;;-7.85;81.19;101190.08;1755129;81;21115;-80
2020/12/08 07:14:58;;;;;;;16.43;8.40;;;;;;;-7.94;81.06;101185.98;1723814;82;21245;-80
2020/12/08 07:17:30;;;;;;;16.40;9.90;;;;;;;-7.94;81.06;101185.98;1706393;82;21207;-81
2020/12/08 07:20:04;;;;;;;24.53;9.57;;;;;;;-7.99;80.91;101187.24;1747893;82;21750;-80
2020/12/08 07:22:41;;;;;;;18.60;10.03;;;;;;;-7.99;80.89;101188.11;1720900;82;21775;-79
2020/12/08 07:25:14;;;;;;;12.10;6.77;;;;;;;-7.92;81.28;101194.09;1733406;82;21066;-80
2020/12/08 07:27:53;;;;;;;19.70;8.93;;;;;;;-7.99;81.04;101176.81;1702662;83;21122;-80
2020/12/08 07:30:27;;;;;;;18.23;8.37;;;;;;;-8.04;81.14;101182.75;1702749;81;21878;-83
2020/12/08 07:33:19;;;;;;;16.13;8.90;;;;;;;-8.05;81.41;101187.25;1705623;77;21829;-82
2020/12/08 07:35:59;;;;;;;17.50;8.37;;;;;;;-8.04;81.66;101181.49;1713343;80;21553;-81
2020/12/08 07:38:40;;;;;;;16.73;7.73;;;;;;;-7.98;81.55;101190.24;1691577;83;21831;-79
2020/12/08 07:41:20;;;;;;;16.57;8.03;;;;;;;-7.92;81.35;101189.08;1678791;84;21844;-79
2020/12/08 07:43:47;;;;;;;28.10;9.80;;;;;;;-7.84;81.44;101191.81;1679495;84;21870;-77
2020/12/08 07:46:25;;;;;;;19.43;9.03;;;;;;;-7.84;81.44;101191.81;1662359;84;21226;-79
2020/12/08 07:49:07;;;;;;;14.03;6.90;;;;;;;-7.72;81.57;101185.97;1695048;83;21851;-79
2020/12/08 07:51:38;;;;;;;17.70;9.00;;;;;;;-7.64;80.39;101185.80;1673128;84;21891;-79
2020/12/08 07:54:09;;;;;;;21.20;8.77;;;;;;;-7.69;79.64;101183.30;1666755;84;21118;-79
2020/12/08 07:56:37;;;;;;;15.53;7.87;;;;;;;-7.63;80.12;101187.92;1689986;84;21170;-79
2020/12/08 07:59:07;;;;;;;19.23;7.90;;;;;;;-7.51;80.19;101182.97;1696603;83;21143;-80
2020/12/08 08:01:45;;;;;;;19.77;9.45;;;;;;;-7.41;79.34;101187.92;1690185;82;21388;-79
2020/12/08 08:04:13;;;;;;;18.83;9.63;;;;;;;-7.36;79.50;101185.36;1705631;83;21055;-78
2020/12/08 08:06:40;;;;;;;18.10;7.93;;;;;;;-7.26;78.87;101195.33;1658835;84;21084;-78
2020/12/08 08:09:08;;;;;;;10.03;5.50;;;;;;;-7.15;78.48;101186.09;1675663;84;21236;-78
2020/12/08 08:11:36;;;;;;;13.63;6.83;;;;;;;-7.20;77.31;101180.70;1705421;83;21738;-79
2020/12/08 08:14:04;;;;;;;16.30;8.00;;;;;;;-7.28;77.79;101185.95;1694733;83;21160;-77
2020/12/08 08:16:34;;;;;;;15.20;6.97;;;;;;;-7.20;78.86;101178.58;1695575;83;21157;-78
2020/12/08 08:19:02;;;;;;;16.90;8.13;;;;;;;-7.03;79.45;101176.05;1710105;83;21095;-77
2020/12/08 08:21:31;;;;;;;15.77;8.43;;;;;;;-6.72;79.81;101178.78;1700774;83;21015;-82
2020/12/08 08:24:03;;;;;;;17.10;9.13;;;;;;;-6.46;79.19;101174.75;1717545;81;21099;-83
2020/12/08 08:26:41;;;;;;;14.87;6.60;;;;;;;-6.32;78.00;101174.47;1671534;83;21195;-79
2020/12/08 08:29:09;;;;;;;13.83;8.07;;;;;;;-6.46;74.64;101179.79;1694726;83;21111;-77
2020/12/08 08:31:36;;;;;;;13.17;8.00;;;;;;;-6.68;75.08;101176.10;1704369;83;21125;-76
2020/12/08 08:34:06;;;;;;;12.43;5.70;;;;;;;-6.77;75.64;101178.82;1697508;83;21120;-78
2020/12/08 08:36:34;;;;;;;16.53;8.23;;;;;;;-6.80;76.18;101173.59;1734161;81;21128;-77
2020/12/08 08:39:03;;;;;;;13.43;6.70;;;;;;;-6.65;76.19;101177.59;1701006;81;21281;-77
2020/12/08 08:41:31;;;;;;;13.93;7.80;;;;;;;-6.55;74.72;101169.05;1744691;80;21066;-78
2020/12/08 08:43:58;;;;;;;14.07;8.00;;;;;;;-6.48;74.92;101160.78;1747250;80;21526;-77
2020/12/08 08:46:27;;;;;;;15.80;8.60;;;;;;;-6.31;74.59;101164.52;1733508;80;21120;-78
2020/12/08 08:48:55;;;;;;;10.93;7.00;;;;;;;-5.78;73.38;101156.38;1751156;80;21164;-78
2020/12/08 08:51:23;;;;;;;11.23;6.97;;;;;;;-5.49;70.61;101161.75;1736185;81;21369;-82
2020/12/08 08:53:55;;;;;;;16.37;8.70;;;;;;;-5.34;69.77;101149.27;1749580;77;21301;-83
2020/12/08 08:56:45;;;;;;;19.50;7.63;;;;;;;-5.01;68.39;101153.53;1764471;80;21105;-83
2020/12/08 08:59:17;;;;;;;12.17;7.60;;;;;;;-4.61;68.24;101149.42;1775054;79;21138;-80
2020/12/08 09:01:45;;;;;;;12.60;7.63;;;;;;;-4.17;67.37;101141.61;1783503;79;21124;-79
2020/12/08 09:04:12;;;;;;;13.03;6.40;;;;;;;-3.94;65.86;101142.63;1773456;79;21598;-77
2020/12/08 09:06:40;;;;;;;14.00;7.63;;;;;;;-3.62;63.98;101139.51;1766854;79;21078;-76
2020/12/08 09:09:11;;;;;;;13.47;7.43;;;;;;;-2.88;64.57;101138.71;1787360;78;21111;-78
2020/12/08 09:11:40;;;;;;;14.07;7.97;;;;;;;-2.14;60.03;101138.19;1767478;79;21068;-77
2020/12/08 09:14:08;;;;;;;16.47;8.23;;;;;;;-1.97;58.11;101130.21;1764411;79;21138;-77
2020/12/08 09:16:38;;;;;;;11.40;7.20;;;;;;;-2.28;58.00;101141.66;1761835;79;22656;-76
2020/12/08 09:19:05;;;;;;;12.73;6.87;;;;;;;-2.86;58.70;101141.81;1758041;80;21230;-77
2020/12/08 09:21:33;;;;;;;10.03;5.60;;;;;;;-3.32;59.62;101159.41;1756320;80;21141;-75
2020/12/08 09:24:01;;;;;;;11.50;6.23;;;;;;;-3.96;60.69;101139.11;1775195;79;21066;-76
2020/12/08 09:26:29;;;;;;;13.40;6.10;;;;;;;-4.58;62.75;101146.19;1759155;81;21117;-76
2020/12/08 09:28:56;;;;;;;15.97;7.53;;;;;;;-5.31;66.16;101147.34;1743211;81;21206;-75
2020/12/08 09:31:25;;;;;;;13.20;7.37;;;;;;;-5.52;66.83;101150.19;1730961;81;21076;-79
2020/12/08 09:33:53;;;;;;;19.57;8.90;;;;;;;-5.24;67.14;101148.23;1751002;79;21179;-78
2020/12/08 09:36:21;;;;;;;13.50;7.67;;;;;;;-4.92;65.89;101155.78;1753714;80;21055;-75
2020/12/08 09:38:48;;;;;;;12.37;7.57;;;;;;;-4.99;65.76;101143.16;1795622;79;21090;-77
2020/12/08 09:41:16;;;;;;;15.40;6.53;;;;;;;-5.05;66.04;101148.67;1764120;79;21580;-77
2020/12/08 09:43:44;;;;;;;14.77;7.93;;;;;;;-4.95;66.07;101147.23;1788918;79;21126;-77
2020/12/08 09:46:11;;;;;;;12.63;6.87;;;;;;;-4.97;66.33;101147.89;1743275;81;21038;-79
2020/12/08 09:48:40;;;;;;;15.47;8.80;;;;;;;-4.78;66.20;101146.18;1716956;82;21158;-78
2020/12/08 09:51:09;;;;;;;13.20;7.37;;;;;;;-4.65;65.61;101144.92;1717309;81;21564;-78
2020/12/08 09:53:38;;;;;;;12.40;5.70;;;;;;;-4.70;65.56;101145.04;1787230;79;21804;-78
2020/12/08 09:56:08;;;;;;;19.63;8.03;;;;;;;-4.58;65.22;101145.83;1794755;79;21122;-78
2020/12/08 09:58:36;;;;;;;16.55;6.95;;;;;;;-4.71;65.54;101145.79;1778096;79;21147;-80
2020/12/08 10:01:04;;;;;;;21.47;9.10;;;;;;;-4.81;66.08;101139.67;1766592;79;21052;-80
2020/12/08 10:03:32;;;;;;;15.67;7.20;;;;;;;-4.90;66.39;101146.28;1756180;79;21158;-80
2020/12/08 10:06:02;;;;;;;13.93;7.80;;;;;;;-5.19;67.27;101132.64;1767754;79;21296;-80
2020/12/08 10:08:31;;;;;;;15.72;7.15;;;;;;;-5.12;67.23;101144.00;1775769;79;21462;-79
2020/12/08 10:11:00;;;;;;;14.90;8.30;;;;;;;-5.06;66.85;101142.28;1750445;81;21127;-79
2020/12/08 10:13:28;;;;;;;16.83;9.20;;;;;;;-5.08;67.27;101139.64;1750100;79;21122;-81
2020/12/08 10:15:56;;;;;;;15.10;7.30;;;;;;;-5.07;67.17;101145.19;1775918;80;21153;-79
2020/12/08 10:18:24;;;;;;;15.90;8.00;;;;;;;-4.85;67.01;101141.52;1774347;79;21197;-82
2020/12/08 10:20:54;;;;;;;14.83;6.87;;;;;;;-4.46;66.05;101129.30;1742846;81;21165;-80
2020/12/08 10:23:21;;;;;;;14.73;8.27;;;;;;;-4.23;64.29;101135.77;1779059;79;21050;-79
2020/12/08 10:25:51;;;;;;;14.97;7.73;;;;;;;-4.04;64.28;101126.42;1778700;79;21092;-81
2020/12/08 10:28:22;;;;;;;12.07;7.37;;;;;;;-3.52;63.60;101128.28;1765063;81;21039;-80
2020/12/08 10:30:51;;;;;;;14.17;7.43;;;;;;;-3.40;60.59;101118.89;1754741;81;21209;-80
2020/12/08 10:33:19;;;;;;;8.60;4.93;;;;;;;-3.58;60.76;101115.27;1774023;79;21164;-80
2020/12/08 10:35:47;;;;;;;22.27;8.07;;;;;;;-4.28;62.06;101132.98;1773903;79;21117;-80
2020/12/08 10:38:15;;;;;;;15.73;8.47;;;;;;;-4.69;62.92;101129.50;1777844;79;21174;-84
2020/12/08 10:40:45;;;;;;;13.87;7.23;;;;;;;-4.80;63.56;101122.12;1763150;79;21159;-80
2020/12/08 10:43:14;;;;;;;14.23;7.97;;;;;;;-4.69;63.53;101126.58;1774716;79;21355;-79
2020/12/08 10:45:44;;;;;;;13.93;7.37;;;;;;;-4.61;63.73;101117.86;1774865;79;21158;-80
2020/12/08 10:48:16;;;;;;;15.90;7.10;;;;;;;-4.92;63.54;101127.63;1757676;81;21122;-80
2020/12/08 10:50:45;;;;;;;13.30;7.47;;;;;;;-5.05;64.57;101123.83;1718583;81;21126;-80
2020/12/08 10:53:15;;;;;;;17.10;8.13;;;;;;;-5.08;65.23;101131.20;1757302;78;21009;-81
2020/12/08 10:55:43;;;;;;;15.17;8.07;;;;;;;-5.24;65.97;101128.92;1776263;79;21294;-79
2020/12/08 10:58:11;;;;;;;16.63;9.57;;;;;;;-5.19;65.75;101123.81;1762300;80;21061;-81
2020/12/08 11:00:39;;;;;;;18.77;8.50;;;;;;;-4.93;65.77;101119.59;1759405;81;21111;-79
2020/12/08 11:03:07;;;;;;;22.63;11.07;;;;;;;-4.72;65.09;101117.16;1766382;80;21564;-81
2020/12/08 11:05:35;;;;;;;18.97;8.90;;;;;;;-4.71;64.92;101123.97;1755451;80;21147;-79
2020/12/08 11:08:05;;;;;;;15.23;9.03;;;;;;;-4.56;65.12;101115.22;1765757;80;21067;-79
2020/12/08 11:10:34;;;;;;;17.70;8.93;;;;;;;-4.32;64.95;101118.38;1763360;80;21122;-82
2020/12/08 11:13:02;;;;;;;16.63;8.97;;;;;;;-4.07;64.15;101112.33;1763156;80;21157;-80
2020/12/08 11:15:30;;;;;;;17.40;9.37;;;;;;;-3.98;63.62;101109.50;1740836;81;21208;-77
2020/12/08 11:17:58;;;;;;;18.43;9.63;;;;;;;-3.98;63.48;101115.81;1758308;80;21135;-81
2020/12/08 11:20:25;;;;;;;20.87;9.97;;;;;;;-3.94;63.49;101108.50;1753807;80;21284;-81
2020/12/08 11:22:53;;;;;;;18.20;10.43;;;;;;;-3.87;63.01;101113.53;1756915;80;21077;-81
2020/12/08 11:25:22;;;;;;;17.70;9.03;;;;;;;-4.11;63.30;101115.06;1759849;80;21083;-79
2020/12/08 11:27:50;;;;;;;20.77;10.90;;;;;;;-4.41;64.49;101106.88;1753700;80;21584;-78
2020/12/08 11:30:18;;;;;;;20.03;10.27;;;;;;;-4.58;64.73;101113.36;1754835;80;21218;-79
2020/12/08 11:32:46;;;;;;;18.90;9.00;;;;;;;-4.61;65.51;101122.00;1756622;80;22238;-78